AUA730 LQSA-LOWW
Flight info
| Callsign | AUA730 |
|---|---|
| Flight time | 0h 52m |
| Altitude | 32000 |
| Route | BOSNA DCT IRDIV DCT NOVLO DCT ZAG DCT OBUTI OBUTI2W |
| Aircraft | A320/M-SDE3FGHIRWY/LB1 |
Departure
| Time | 2026-05-04 09:29 |
|---|---|
| Airport | Sarajevo International Airport (LQSA) |
Arrival
| Time | 2026-05-04 10:22 |
|---|---|
| Airport | Vienna International Airport (LOWW) |
| Time | Latitude | Longitude | Altitude | Speed | Heading |
|---|---|---|---|---|---|
| 2026-05-04 09:03 | 43.82590 | 18.33529 | 1676 ft | 0 kts | 27° |
| 2026-05-04 09:22 | 43.82584 | 18.33525 | 1680 ft | 3 kts | 27° |
| 2026-05-04 09:22 | 43.82565 | 18.33511 | 1682 ft | 3 kts | 27° |
| 2026-05-04 09:22 | 43.82545 | 18.33497 | 1668 ft | 3 kts | 32° |
| 2026-05-04 09:22 | 43.82527 | 18.33479 | 1681 ft | 3 kts | 56° |
| 2026-05-04 09:23 | 43.82522 | 18.33459 | 1677 ft | 1 kts | 117° |
| 2026-05-04 09:23 | 43.82522 | 18.33458 | 1672 ft | 0 kts | 117° |
| 2026-05-04 09:25 | 43.82518 | 18.33470 | 1678 ft | 1 kts | 117° |
| 2026-05-04 09:26 | 43.82489 | 18.33547 | 1669 ft | 15 kts | 117° |
| 2026-05-04 09:26 | 43.82438 | 18.33678 | 1676 ft | 15 kts | 118° |
| 2026-05-04 09:26 | 43.82390 | 18.33806 | 1675 ft | 15 kts | 117° |
| 2026-05-04 09:26 | 43.82345 | 18.33929 | 1671 ft | 14 kts | 117° |
| 2026-05-04 09:27 | 43.82303 | 18.34041 | 1671 ft | 12 kts | 117° |
| 2026-05-04 09:27 | 43.82267 | 18.34137 | 1678 ft | 10 kts | 117° |
| 2026-05-04 09:27 | 43.82229 | 18.34238 | 1670 ft | 14 kts | 117° |
| 2026-05-04 09:27 | 43.82179 | 18.34374 | 1677 ft | 18 kts | 117° |
| 2026-05-04 09:28 | 43.82116 | 18.34541 | 1674 ft | 21 kts | 117° |
| 2026-05-04 09:28 | 43.81998 | 18.34624 | 1668 ft | 21 kts | 193° |
| 2026-05-04 09:28 | 43.81947 | 18.34517 | 1668 ft | 15 kts | 284° |
| 2026-05-04 09:28 | 43.81956 | 18.34488 | 1674 ft | 0 kts | 297° |
| 2026-05-04 09:29 | 43.82010 | 18.34346 | 1668 ft | 51 kts | 298° |
| 2026-05-04 09:29 | 43.82284 | 18.33615 | 1675 ft | 118 kts | 297° |
| 2026-05-04 09:29 | 43.82748 | 18.32389 | 1763 ft | 158 kts | 299° |
| 2026-05-04 09:29 | 43.83284 | 18.31134 | 2403 ft | 154 kts | 317° |
| 2026-05-04 09:30 | 43.84221 | 18.30417 | 2962 ft | 157 kts | 342° |
| 2026-05-04 09:30 | 43.85339 | 18.29955 | 3274 ft | 177 kts | 344° |
| 2026-05-04 09:30 | 43.86593 | 18.29438 | 3565 ft | 199 kts | 343° |
| 2026-05-04 09:30 | 43.88000 | 18.28846 | 3835 ft | 225 kts | 343° |
| 2026-05-04 09:31 | 43.89561 | 18.28181 | 4461 ft | 241 kts | 343° |
| 2026-05-04 09:31 | 43.91179 | 18.27486 | 5272 ft | 246 kts | 343° |
| 2026-05-04 09:31 | 43.92826 | 18.26776 | 6089 ft | 249 kts | 343° |
| 2026-05-04 09:31 | 43.94487 | 18.26057 | 6915 ft | 252 kts | 343° |
| 2026-05-04 09:32 | 43.96220 | 18.25571 | 7586 ft | 262 kts | 355° |
| 2026-05-04 09:32 | 43.98093 | 18.25309 | 8130 ft | 276 kts | 355° |
| 2026-05-04 09:34 | 44.10857 | 18.17679 | 12275 ft | 352 kts | 313° |
| 2026-05-04 09:34 | 44.12457 | 18.15120 | 12886 ft | 358 kts | 313° |
| 2026-05-04 09:34 | 44.14128 | 18.12454 | 13595 ft | 362 kts | 313° |
| 2026-05-04 09:34 | 44.15773 | 18.09838 | 14235 ft | 366 kts | 313° |
| 2026-05-04 09:35 | 44.17481 | 18.07127 | 14853 ft | 369 kts | 313° |
| 2026-05-04 09:35 | 44.19184 | 18.04427 | 15490 ft | 372 kts | 313° |
| 2026-05-04 09:35 | 44.20876 | 18.01749 | 16115 ft | 375 kts | 313° |
| 2026-05-04 09:35 | 44.22608 | 17.99008 | 16759 ft | 378 kts | 313° |
| 2026-05-04 09:37 | 44.35040 | 17.79218 | 20787 ft | 396 kts | 313° |
| 2026-05-04 09:37 | 44.36934 | 17.76407 | 21320 ft | 398 kts | 319° |
| 2026-05-04 09:38 | 44.39128 | 17.74054 | 21860 ft | 398 kts | 328° |
| 2026-05-04 09:38 | 44.41447 | 17.71923 | 22400 ft | 400 kts | 328° |
| 2026-05-04 09:38 | 44.43782 | 17.69771 | 22919 ft | 402 kts | 328° |
| 2026-05-04 09:38 | 44.46123 | 17.67610 | 23433 ft | 405 kts | 328° |
| 2026-05-04 09:39 | 44.48476 | 17.65435 | 23888 ft | 407 kts | 328° |
| 2026-05-04 09:39 | 44.50842 | 17.63241 | 24291 ft | 409 kts | 328° |
| 2026-05-04 09:39 | 44.53215 | 17.61037 | 24700 ft | 410 kts | 328° |
| 2026-05-04 09:39 | 44.55594 | 17.58823 | 25103 ft | 411 kts | 327° |
| 2026-05-04 09:40 | 44.57984 | 17.56596 | 25453 ft | 413 kts | 327° |
| 2026-05-04 09:40 | 44.60384 | 17.54363 | 25809 ft | 415 kts | 327° |
| 2026-05-04 09:40 | 44.62801 | 17.52117 | 26157 ft | 417 kts | 327° |
| 2026-05-04 09:40 | 44.65226 | 17.49863 | 26512 ft | 419 kts | 327° |
| 2026-05-04 09:41 | 44.67661 | 17.47596 | 26861 ft | 421 kts | 327° |
| 2026-05-04 09:42 | 44.84917 | 17.31393 | 29080 ft | 432 kts | 327° |
| 2026-05-04 09:43 | 44.87424 | 17.29034 | 29343 ft | 434 kts | 327° |
| 2026-05-04 09:43 | 44.89937 | 17.26666 | 29624 ft | 435 kts | 327° |
| 2026-05-04 09:43 | 44.92460 | 17.24290 | 29892 ft | 437 kts | 327° |
| 2026-05-04 09:43 | 44.94987 | 17.21904 | 30148 ft | 438 kts | 327° |
| 2026-05-04 09:44 | 44.97519 | 17.19509 | 30416 ft | 438 kts | 327° |
| 2026-05-04 09:44 | 45.00044 | 17.17120 | 30726 ft | 436 kts | 326° |
| 2026-05-04 09:44 | 45.02558 | 17.14736 | 31050 ft | 435 kts | 326° |
| 2026-05-04 09:46 | 45.19998 | 16.98135 | 32144 ft | 428 kts | 326° |
| 2026-05-04 09:46 | 45.24923 | 16.93413 | 32147 ft | 427 kts | 326° |
| 2026-05-04 09:47 | 45.29018 | 16.89487 | 32141 ft | 427 kts | 326° |
| 2026-05-04 09:49 | 45.48799 | 16.70445 | 32124 ft | 429 kts | 326° |
| 2026-05-04 09:51 | 45.66046 | 16.53707 | 32116 ft | 429 kts | 325° |
| 2026-05-04 09:51 | 45.70983 | 16.48891 | 32113 ft | 430 kts | 325° |
| 2026-05-04 09:52 | 45.75922 | 16.44072 | 32114 ft | 430 kts | 325° |
| 2026-05-04 09:52 | 45.80861 | 16.39230 | 32117 ft | 430 kts | 325° |
| 2026-05-04 09:53 | 45.85798 | 16.34391 | 32110 ft | 430 kts | 327° |
| 2026-05-04 09:53 | 45.91283 | 16.31000 | 32110 ft | 432 kts | 346° |
| 2026-05-04 09:54 | 45.97274 | 16.30154 | 32105 ft | 434 kts | 356° |
| 2026-05-04 09:54 | 46.03319 | 16.29758 | 32109 ft | 435 kts | 356° |
| 2026-05-04 09:55 | 46.09367 | 16.29342 | 32103 ft | 435 kts | 355° |
| 2026-05-04 09:55 | 46.15417 | 16.28919 | 32103 ft | 435 kts | 356° |
| 2026-05-04 09:56 | 46.21472 | 16.28510 | 32096 ft | 436 kts | 356° |
| 2026-05-04 09:56 | 46.27531 | 16.28100 | 32097 ft | 436 kts | 356° |
| 2026-05-04 09:57 | 46.33590 | 16.27689 | 32097 ft | 436 kts | 356° |
| 2026-05-04 09:57 | 46.39655 | 16.27763 | 32092 ft | 438 kts | 6° |
| 2026-05-04 09:58 | 46.45696 | 16.29008 | 32099 ft | 438 kts | 6° |
| 2026-05-04 09:58 | 46.51738 | 16.30261 | 32091 ft | 439 kts | 6° |
| 2026-05-04 10:00 | 46.75932 | 16.35249 | 32091 ft | 439 kts | 6° |
| 2026-05-04 10:04 | 47.18389 | 16.44111 | 29084 ft | 434 kts | 6° |
| 2026-05-04 10:04 | 47.21365 | 16.44740 | 28466 ft | 430 kts | 7° |
| 2026-05-04 10:04 | 47.24310 | 16.45359 | 27864 ft | 426 kts | 6° |
| 2026-05-04 10:04 | 47.27232 | 16.45972 | 27267 ft | 422 kts | 6° |
| 2026-05-04 10:05 | 47.30130 | 16.46584 | 26666 ft | 419 kts | 7° |
| 2026-05-04 10:05 | 47.33007 | 16.47195 | 26080 ft | 417 kts | 7° |
| 2026-05-04 10:05 | 47.35867 | 16.47805 | 25496 ft | 414 kts | 8° |
| 2026-05-04 10:05 | 47.38715 | 16.48410 | 24913 ft | 413 kts | 7° |
| 2026-05-04 10:06 | 47.41548 | 16.49014 | 24335 ft | 411 kts | 8° |
| 2026-05-04 10:06 | 47.44380 | 16.49617 | 23797 ft | 410 kts | 8° |
| 2026-05-04 10:06 | 47.47200 | 16.50217 | 23188 ft | 409 kts | 7° |
| 2026-05-04 10:08 | 47.63719 | 16.53744 | 20291 ft | 391 kts | 7° |
| 2026-05-04 10:08 | 47.66402 | 16.54320 | 19817 ft | 389 kts | 6° |
| 2026-05-04 10:08 | 47.69073 | 16.54892 | 19341 ft | 387 kts | 6° |
| 2026-05-04 10:08 | 47.71735 | 16.55460 | 18858 ft | 386 kts | 7° |
| 2026-05-04 10:09 | 47.74390 | 16.56030 | 18359 ft | 385 kts | 6° |
| 2026-05-04 10:09 | 47.77039 | 16.56603 | 17825 ft | 384 kts | 6° |
| 2026-05-04 10:09 | 47.79678 | 16.57174 | 17319 ft | 382 kts | 6° |
| 2026-05-04 10:09 | 47.82301 | 16.57740 | 16807 ft | 381 kts | 6° |
| 2026-05-04 10:10 | 47.84920 | 16.58307 | 16304 ft | 380 kts | 7° |
| 2026-05-04 10:10 | 47.87530 | 16.58871 | 15787 ft | 378 kts | 7° |
| 2026-05-04 10:10 | 47.90134 | 16.59433 | 15291 ft | 378 kts | 7° |
| 2026-05-04 10:10 | 47.92735 | 16.59996 | 14783 ft | 377 kts | 6° |
| 2026-05-04 10:11 | 47.95329 | 16.60562 | 14263 ft | 377 kts | 7° |
| 2026-05-04 10:11 | 47.97922 | 16.61131 | 13747 ft | 377 kts | 7° |
| 2026-05-04 10:11 | 48.00516 | 16.61695 | 13195 ft | 376 kts | 7° |
| 2026-05-04 10:11 | 48.03105 | 16.62253 | 12680 ft | 374 kts | 7° |
| 2026-05-04 10:12 | 48.05676 | 16.62809 | 12151 ft | 373 kts | 7° |
| 2026-05-04 10:12 | 48.08238 | 16.63365 | 11623 ft | 372 kts | 7° |
| 2026-05-04 10:12 | 48.10801 | 16.63923 | 11079 ft | 372 kts | 7° |
| 2026-05-04 10:12 | 48.13365 | 16.64483 | 10580 ft | 370 kts | 7° |
| 2026-05-04 10:13 | 48.15868 | 16.65030 | 10459 ft | 357 kts | 7° |
| 2026-05-04 10:13 | 48.18282 | 16.65557 | 10334 ft | 345 kts | 7° |
| 2026-05-04 10:13 | 48.20615 | 16.66057 | 10212 ft | 332 kts | 5° |
| 2026-05-04 10:13 | 48.22872 | 16.66040 | 10039 ft | 317 kts | 350° |
| 2026-05-04 10:14 | 48.24979 | 16.65325 | 9520 ft | 307 kts | 341° |
| 2026-05-04 10:14 | 48.27041 | 16.64452 | 8909 ft | 305 kts | 342° |
| 2026-05-04 10:16 | 48.36518 | 16.53077 | 5841 ft | 225 kts | 256° |
| 2026-05-04 10:16 | 48.35892 | 16.50912 | 5293 ft | 232 kts | 230° |
| 2026-05-04 10:16 | 48.34633 | 16.49435 | 5014 ft | 229 kts | 204° |
| 2026-05-04 10:16 | 48.33088 | 16.48986 | 4788 ft | 228 kts | 177° |
| 2026-05-04 10:17 | 48.31547 | 16.49493 | 4512 ft | 228 kts | 166° |
| 2026-05-04 10:17 | 48.30034 | 16.50144 | 4208 ft | 222 kts | 165° |
| 2026-05-04 10:19 | 48.21381 | 16.53829 | 2503 ft | 147 kts | 166° |
| 2026-05-04 10:19 | 48.20438 | 16.54229 | 2320 ft | 137 kts | 166° |
| 2026-05-04 10:19 | 48.19536 | 16.54611 | 2134 ft | 134 kts | 165° |
| 2026-05-04 10:19 | 48.18642 | 16.54990 | 1962 ft | 133 kts | 165° |
| 2026-05-04 10:20 | 48.17754 | 16.55367 | 1782 ft | 131 kts | 164° |
| 2026-05-04 10:20 | 48.16875 | 16.55738 | 1604 ft | 131 kts | 164° |
| 2026-05-04 10:20 | 48.15998 | 16.56113 | 1442 ft | 131 kts | 165° |
| 2026-05-04 10:20 | 48.15116 | 16.56481 | 1277 ft | 135 kts | 165° |
| 2026-05-04 10:21 | 48.14227 | 16.56857 | 1089 ft | 131 kts | 161° |
| 2026-05-04 10:21 | 48.13345 | 16.57229 | 919 ft | 132 kts | 163° |
| 2026-05-04 10:21 | 48.12475 | 16.57600 | 768 ft | 131 kts | 160° |
| 2026-05-04 10:21 | 48.11603 | 16.57970 | 627 ft | 129 kts | 160° |
| 2026-05-04 10:22 | 48.10468 | 16.58447 | 611 ft | 34 kts | 166° |
| 2026-05-04 10:22 | 48.10259 | 16.58444 | 609 ft | 27 kts | 192° |
| 2026-05-04 10:22 | 48.10140 | 16.58342 | 611 ft | 18 kts | 276° |
| 2026-05-04 10:23 | 48.10196 | 16.58288 | 618 ft | 9 kts | 332° |
| 2026-05-04 10:23 | 48.10291 | 16.58252 | 611 ft | 15 kts | 346° |
| 2026-05-04 10:25 | 48.11053 | 16.57928 | 614 ft | 17 kts | 343° |
| 2026-05-04 10:25 | 48.11127 | 16.57810 | 616 ft | 15 kts | 296° |
| 2026-05-04 10:25 | 48.11185 | 16.57630 | 618 ft | 25 kts | 295° |
| 2026-05-04 10:25 | 48.11261 | 16.57394 | 613 ft | 24 kts | 296° |
| 2026-05-04 10:26 | 48.11333 | 16.57177 | 622 ft | 22 kts | 296° |
| 2026-05-04 10:26 | 48.11398 | 16.56976 | 617 ft | 21 kts | 295° |
| 2026-05-04 10:26 | 48.11459 | 16.56790 | 615 ft | 19 kts | 296° |
| 2026-05-04 10:26 | 48.11514 | 16.56619 | 618 ft | 18 kts | 295° |
| 2026-05-04 10:27 | 48.11565 | 16.56460 | 613 ft | 16 kts | 296° |
| 2026-05-04 10:27 | 48.11612 | 16.56315 | 614 ft | 15 kts | 295° |
| 2026-05-04 10:27 | 48.11691 | 16.56267 | 616 ft | 16 kts | 24° |
| 2026-05-04 10:27 | 48.11751 | 16.56377 | 613 ft | 11 kts | 120° |
| 2026-05-04 10:28 | 48.11721 | 16.56487 | 610 ft | 13 kts | 111° |
| 2026-05-04 10:28 | 48.11667 | 16.56532 | 616 ft | 10 kts | 198° |
| 2026-05-04 10:28 | 48.11631 | 16.56504 | 611 ft | 1 kts | 205° |
| 2026-05-04 10:28 | 48.11626 | 16.56501 | 614 ft | 0 kts | 205° |